createdAt,value
2024-01-24T00:02:00.703Z,101267.78
2024-01-24T00:04:27.937Z,101275.44
2024-01-24T00:06:54.519Z,101267.19
2024-01-24T00:09:21.157Z,101275.78
2024-01-24T00:11:47.673Z,101292.25
2024-01-24T00:14:14.283Z,101264.34
2024-01-24T00:16:41.785Z,101275.66
2024-01-24T00:19:08.388Z,101258.38
2024-01-24T00:21:34.955Z,101280.31
2024-01-24T00:24:01.524Z,101266.59
2024-01-24T00:26:28.057Z,101271.97
2024-01-24T00:28:54.609Z,101275.66
2024-01-24T00:31:21.042Z,101288.91
2024-01-24T00:33:47.646Z,101263.59
2024-01-24T00:36:15.323Z,101294.28
2024-01-24T00:38:41.777Z,101291.66
2024-01-24T00:41:08.250Z,101287.34
2024-01-24T00:43:34.698Z,101284.09
2024-01-24T00:46:01.339Z,101291.97
2024-01-24T00:48:27.932Z,101282.56
2024-01-24T00:50:54.584Z,101308.19
2024-01-24T00:53:21.850Z,101287.19
2024-01-24T00:55:48.801Z,101288.16
2024-01-24T00:58:15.454Z,101297.09
2024-01-24T01:00:42.112Z,101307.72
2024-01-24T01:03:09.728Z,101307.72
2024-01-24T01:05:37.604Z,101305.09
2024-01-24T01:08:06.347Z,101314.03
2024-01-24T01:10:32.841Z,101297.56
2024-01-24T01:12:59.302Z,101291.47
2024-01-24T01:15:25.896Z,101295.06
2024-01-24T01:17:52.852Z,101288.84
2024-01-24T01:20:22.500Z,101293.16
2024-01-24T01:22:49.472Z,101303.88
2024-01-24T01:25:16.063Z,101301.25
2024-01-24T01:27:42.678Z,101295.28
2024-01-24T01:30:09.923Z,101296.22
2024-01-24T01:32:36.765Z,101300.53
2024-01-24T01:35:03.297Z,101291.94
2024-01-24T01:37:29.820Z,101293.59
2024-01-24T01:39:56.291Z,101278.94
2024-01-24T01:42:23.032Z,101293.72
2024-01-24T01:44:49.645Z,101285.03
2024-01-24T01:47:17.282Z,101298.13
2024-01-24T01:49:45.010Z,101277.03
2024-01-24T01:52:12.073Z,101280.47
2024-01-24T01:54:41.218Z,101267.38
2024-01-24T01:57:10.028Z,101248.16
2024-01-24T01:59:37.681Z,101268.31
2024-01-24T02:02:05.109Z,101264.03
2024-01-24T02:04:31.724Z,101264.63
2024-01-24T02:06:58.823Z,101291.69
2024-01-24T02:09:25.951Z,101283.81
2024-01-24T02:11:52.622Z,101266.31
2024-01-24T02:14:19.202Z,101267.97
2024-01-24T02:16:45.833Z,101259.03
2024-01-24T02:19:12.458Z,101251.16
2024-01-24T02:21:39.216Z,101265.81
2024-01-24T02:24:12.516Z,101239.56
2024-01-24T02:26:39.968Z,101243.03
2024-01-24T02:29:08.717Z,101274.53
2024-01-24T02:31:35.200Z,101256.28
2024-01-24T02:34:02.974Z,101263.19
2024-01-24T02:36:29.727Z,101261.41
2024-01-24T02:38:58.535Z,101274.31
2024-01-24T02:41:25.497Z,101259.41
2024-01-24T02:43:51.974Z,101298.66
2024-01-24T02:46:18.521Z,101303.19
2024-01-24T02:48:45.036Z,101313.69
2024-01-24T02:51:11.903Z,101307.59
2024-01-24T02:53:39.560Z,101318.94
2024-01-24T02:56:06.225Z,101304.84
2024-01-24T02:58:32.721Z,101317.25
2024-01-24T03:00:59.225Z,101318.81
2024-01-24T03:03:25.772Z,101304.03
2024-01-24T03:05:52.414Z,101319.66
2024-01-24T03:08:18.915Z,101316.31
2024-01-24T03:10:45.456Z,101355.69
2024-01-24T03:13:11.964Z,101340.06
2024-01-24T03:15:38.574Z,101358.50
2024-01-24T03:18:05.341Z,101356.63
2024-01-24T03:20:31.841Z,101318.22
2024-01-24T03:22:58.296Z,101330.50
2024-01-24T03:25:24.873Z,101330.38
2024-01-24T03:27:51.341Z,101348.75
2024-01-24T03:30:18.037Z,101347.09
2024-01-24T03:32:44.831Z,101356.13
2024-01-24T03:35:11.594Z,101373.78
2024-01-24T03:37:38.256Z,101346.81
2024-01-24T03:40:06.508Z,101335.72
2024-01-24T03:42:33.654Z,101352.28
2024-01-24T03:45:00.332Z,101355.03
2024-01-24T03:47:26.802Z,101344.41
2024-01-24T03:49:53.305Z,101363.75
2024-01-24T03:52:19.950Z,101344.75
2024-01-24T03:54:46.492Z,101351.19
2024-01-24T03:57:12.980Z,101342.59
2024-01-24T03:59:39.396Z,101343.53
2024-01-24T04:02:05.829Z,101340.19
2024-01-24T04:04:32.456Z,101322.06
2024-01-24T04:06:59.118Z,101313.69
2024-01-24T04:09:25.741Z,101321.88
2024-01-24T04:11:52.292Z,101297.06
2024-01-24T04:14:18.883Z,101322.16
2024-01-24T04:16:45.363Z,101320.63
2024-01-24T04:19:11.912Z,101318.56
2024-01-24T04:21:44.823Z,101328.53
2024-01-24T04:24:11.579Z,101323.50
2024-01-24T04:26:38.558Z,101349.09
2024-01-24T04:29:05.235Z,101317.75
2024-01-24T04:31:31.784Z,101349.22
2024-01-24T04:33:58.459Z,101348.16
2024-01-24T04:36:25.056Z,101353.69
2024-01-24T04:38:51.557Z,101340.00
2024-01-24T04:41:18.108Z,101370.72
2024-01-24T04:43:44.605Z,101398.91
2024-01-24T04:46:17.352Z,101402.50
2024-01-24T04:48:45.226Z,101409.72
2024-01-24T04:51:14.649Z,101405.53
2024-01-24T04:53:41.374Z,101416.75
2024-01-24T04:56:08.451Z,101430.69
2024-01-24T04:58:34.956Z,101434.06
2024-01-24T05:01:01.791Z,101434.16
2024-01-24T05:03:28.837Z,101443.06
2024-01-24T05:06:01.221Z,101437.22
2024-01-24T05:08:33.961Z,101435.84
2024-01-24T05:11:00.396Z,101449.22
2024-01-24T05:13:26.825Z,101444.09
2024-01-24T05:15:53.321Z,101443.34
2024-01-24T05:18:20.022Z,101451.53
2024-01-24T05:20:46.548Z,101447.44
2024-01-24T05:23:13.025Z,101447.75
2024-01-24T05:25:41.458Z,101440.63
2024-01-24T05:28:09.355Z,101440.63
2024-01-24T05:30:37.069Z,101457.38
2024-01-24T05:33:04.401Z,101453.00
2024-01-24T05:35:31.065Z,101446.19
2024-01-24T05:37:57.708Z,101474.06
2024-01-24T05:40:24.170Z,101497.41
2024-01-24T05:42:53.311Z,101492.28
2024-01-24T05:45:20.477Z,101508.09
2024-01-24T05:47:47.140Z,101494.06
2024-01-24T05:50:14.359Z,101496.03
2024-01-24T05:52:43.952Z,101531.13
2024-01-24T05:55:14.390Z,101506.06
2024-01-24T05:57:41.878Z,101514.16
2024-01-24T06:00:10.795Z,101518.72
2024-01-24T06:02:37.785Z,101539.59
2024-01-24T06:05:04.900Z,101538.66
2024-01-24T06:07:32.514Z,101548.28
2024-01-24T06:09:59.093Z,101546.63
2024-01-24T06:12:25.683Z,101555.50
2024-01-24T06:14:53.454Z,101548.19
2024-01-24T06:17:19.912Z,101563.34
2024-01-24T06:19:46.505Z,101585.34
2024-01-24T06:22:12.938Z,101580.41
2024-01-24T06:24:39.557Z,101567.53
2024-01-24T06:27:06.572Z,101589.47
2024-01-24T06:30:15.752Z,101589.69
2024-01-24T06:32:19.339Z,101590.91
2024-01-24T06:34:45.779Z,101591.22
2024-01-24T06:37:14.984Z,101602.81
2024-01-24T06:39:41.516Z,101619.47
2024-01-24T06:42:08.049Z,101621.25
2024-01-24T06:44:34.711Z,101630.19
2024-01-24T06:47:01.161Z,101644.22
2024-01-24T06:49:27.762Z,101616.47
2024-01-24T06:51:54.414Z,101649.56
2024-01-24T06:54:21.041Z,101644.50
2024-01-24T06:56:47.503Z,101637.78
2024-01-24T06:59:15.016Z,101639.63
2024-01-24T07:01:41.504Z,101647.78
2024-01-24T07:04:08.122Z,101656.38
2024-01-24T07:06:34.706Z,101649.47
2024-01-24T07:09:01.220Z,101648.91
2024-01-24T07:11:27.665Z,101658.72
2024-01-24T07:13:54.226Z,101653.78
2024-01-24T07:16:20.820Z,101662.66
2024-01-24T07:18:47.845Z,101674.22
2024-01-24T07:21:15.474Z,101681.34
2024-01-24T07:23:41.956Z,101681.44
2024-01-24T07:26:08.520Z,101680.75
2024-01-24T07:28:36.245Z,101672.28
2024-01-24T07:31:03.654Z,101679.44
2024-01-24T07:33:30.373Z,101700.47
2024-01-24T07:35:56.980Z,101703.16
2024-01-24T07:38:23.996Z,101685.88
2024-01-24T07:40:50.493Z,101682.50
2024-01-24T07:43:17.166Z,101692.03
2024-01-24T07:45:43.977Z,101704.38
2024-01-24T07:48:15.272Z,101721.81
2024-01-24T07:50:43.417Z,101754.19
2024-01-24T07:53:10.535Z,101751.69
2024-01-24T07:55:46.818Z,101743.94
2024-01-24T07:58:20.686Z,101746.56
2024-01-24T08:00:47.176Z,101749.25
2024-01-24T08:03:14.303Z,101757.94
2024-01-24T08:05:40.900Z,101758.59
2024-01-24T08:08:07.697Z,101759.53
2024-01-24T08:10:34.261Z,101763.75
2024-01-24T08:13:00.990Z,101775.69
2024-01-24T08:15:27.850Z,101772.25
2024-01-24T08:17:55.427Z,101771.16
2024-01-24T08:20:22.992Z,101782.63
2024-01-24T08:22:50.071Z,101783.56
2024-01-24T08:25:16.749Z,101772.25
2024-01-24T08:27:43.303Z,101786.06
2024-01-24T08:30:09.909Z,101784.47
2024-01-24T08:32:41.403Z,101789.38
2024-01-24T08:35:09.432Z,101793.75
2024-01-24T08:37:35.953Z,101794.75
2024-01-24T08:40:03.199Z,101818.28
2024-01-24T08:42:30.162Z,101814.78
2024-01-24T08:44:57.716Z,101824.28
2024-01-24T08:47:24.202Z,101815.50
2024-01-24T08:49:51.650Z,101824.09
2024-01-24T08:52:18.302Z,101804.03
2024-01-24T08:54:45.268Z,101810.09
2024-01-24T08:57:12.344Z,101805.66
2024-01-24T08:59:39.765Z,101825.53
2024-01-24T09:02:08.340Z,101851.59
2024-01-24T09:04:37.800Z,101875.03
2024-01-24T09:07:05.271Z,101896.66
2024-01-24T09:09:33.829Z,101895.63
2024-01-24T09:12:01.118Z,101886.19
2024-01-24T09:14:28.080Z,101867.97
2024-01-24T09:16:55.002Z,101867.88
2024-01-24T09:19:22.144Z,101869.47
2024-01-24T09:21:51.757Z,101879.88
2024-01-24T09:24:18.633Z,101878.84
2024-01-24T09:26:45.379Z,101886.50
2024-01-24T09:29:13.439Z,101897.66
2024-01-24T09:31:44.601Z,101925.25
2024-01-24T09:34:15.278Z,101930.19
2024-01-24T09:36:42.253Z,101930.03
2024-01-24T09:39:10.440Z,101918.53
2024-01-24T09:41:42.004Z,101920.97
2024-01-24T09:44:15.509Z,101923.50
2024-01-24T09:46:42.019Z,101939.88
2024-01-24T09:49:08.945Z,101942.13
2024-01-24T09:51:36.348Z,101947.38
2024-01-24T09:54:07.625Z,101950.75
2024-01-24T09:56:38.678Z,101947.78
2024-01-24T09:59:06.437Z,101947.63
2024-01-24T10:01:35.665Z,101951.81
2024-01-24T10:04:02.957Z,101959.47
2024-01-24T10:06:30.173Z,101956.69
2024-01-24T10:09:00.438Z,101966.81
2024-01-24T10:11:27.808Z,101968.41
2024-01-24T10:13:58.609Z,101975.91
2024-01-24T10:16:27.297Z,101993.97
2024-01-24T10:18:58.047Z,102018.88
2024-01-24T10:21:26.656Z,101998.69
2024-01-24T10:23:56.510Z,102015.34
2024-01-24T10:26:23.235Z,102014.50
2024-01-24T10:28:50.314Z,102013.56
2024-01-24T10:31:21.593Z,101993.53
2024-01-24T10:33:49.921Z,101997.09
2024-01-24T10:36:26.056Z,102011.19
2024-01-24T10:39:04.885Z,102017.47
2024-01-24T10:41:33.419Z,102040.34
2024-01-24T10:44:07.197Z,102034.97
2024-01-24T10:46:34.452Z,102035.81
2024-01-24T10:49:02.639Z,102037.47
2024-01-24T10:51:29.625Z,102051.91
2024-01-24T10:53:56.905Z,102056.97
2024-01-24T10:56:26.012Z,102054.19
2024-01-24T10:58:52.940Z,102077.84
2024-01-24T11:01:19.816Z,102054.09
2024-01-24T11:03:51.373Z,102085.19
2024-01-24T11:06:19.823Z,102088.53
2024-01-24T11:09:01.788Z,102084.94
2024-01-24T11:11:33.095Z,102086.44
2024-01-24T11:14:00.336Z,102089.91
2024-01-24T11:16:26.716Z,102094.31
2024-01-24T11:18:53.896Z,102109.28
2024-01-24T11:21:24.148Z,102110.22
2024-01-24T11:23:50.742Z,102107.59
2024-01-24T11:26:20.046Z,102118.81
2024-01-24T11:28:47.583Z,102120.41
2024-01-24T11:31:15.322Z,102135.28
2024-01-24T11:34:11.160Z,102133.47
2024-01-24T11:36:49.185Z,102135.88
2024-01-24T11:39:40.984Z,102146.19
2024-01-24T11:42:31.481Z,102164.91
2024-01-24T11:45:15.542Z,102157.09
2024-01-24T11:47:42.344Z,102163.47
2024-01-24T11:50:12.217Z,102170.56
2024-01-24T11:52:39.463Z,102182.88
2024-01-24T11:55:06.904Z,102172.41
2024-01-24T11:57:33.485Z,102173.13
2024-01-24T12:00:00.039Z,102186.78
2024-01-24T12:02:27.052Z,102197.00
2024-01-24T12:04:54.110Z,102208.19
2024-01-24T12:07:20.848Z,102188.91
2024-01-24T12:09:49.510Z,102227.28
2024-01-24T12:12:17.359Z,102211.56
2024-01-24T12:14:44.581Z,102209.69
2024-01-24T12:17:11.677Z,102209.59
2024-01-24T12:19:38.655Z,102203.44
2024-01-24T12:22:10.394Z,102217.94
2024-01-24T12:24:43.578Z,102221.41
2024-01-24T12:27:10.809Z,102220.56
2024-01-24T12:29:37.512Z,102210.19
2024-01-24T12:32:06.299Z,102226.84
2024-01-24T12:34:33.387Z,102236.38
2024-01-24T12:37:03.403Z,102231.16
2024-01-24T12:39:33.783Z,102233.03
2024-01-24T12:42:03.563Z,102263.63
2024-01-24T12:44:30.720Z,102231.34
2024-01-24T12:46:58.784Z,102246.28
2024-01-24T12:49:26.535Z,102248.84
2024-01-24T12:51:54.607Z,102244.59
2024-01-24T12:54:22.777Z,102268.38
2024-01-24T12:56:49.954Z,102262.28
2024-01-24T12:59:18.297Z,102294.75
2024-01-24T13:01:45.004Z,102286.03
2024-01-24T13:04:11.779Z,102284.34
2024-01-24T13:06:38.796Z,102294.94
2024-01-24T13:09:06.191Z,102297.72
2024-01-24T13:11:33.280Z,102291.69
2024-01-24T13:13:59.989Z,102303.31
2024-01-24T13:16:26.875Z,102301.59
2024-01-24T13:18:53.947Z,102314.84
2024-01-24T13:21:20.562Z,102300.88
2024-01-24T13:23:47.090Z,102313.16
2024-01-24T13:26:13.949Z,102321.09
2024-01-24T13:28:40.932Z,102334.19
2024-01-24T13:31:07.489Z,102327.19
2024-01-24T13:33:35.191Z,102328.88
2024-01-24T13:36:02.400Z,102339.34
2024-01-24T13:38:29.959Z,102329.72
2024-01-24T13:40:56.907Z,102339.25
2024-01-24T13:43:23.719Z,102339.34
2024-01-24T13:45:50.439Z,102348.06
2024-01-24T13:48:17.920Z,102343.75
2024-01-24T13:50:47.399Z,102345.44
2024-01-24T13:53:13.919Z,102358.44
2024-01-24T13:55:41.085Z,102341.13
2024-01-24T13:58:07.929Z,102363.78
2024-01-24T14:00:34.504Z,102377.06
2024-01-24T14:03:01.382Z,102358.94
2024-01-24T14:05:28.147Z,102369.44
2024-01-24T14:07:54.701Z,102373.91
2024-01-24T14:10:21.469Z,102373.13
2024-01-24T14:12:48.278Z,102399.50
2024-01-24T14:15:24.417Z,102408.38
2024-01-24T14:17:59.699Z,102429.41
2024-01-24T14:20:26.504Z,102436.50
2024-01-24T14:22:53.066Z,102440.19
2024-01-24T14:25:19.680Z,102432.50
2024-01-24T14:27:46.240Z,102439.69
2024-01-24T14:30:13.610Z,102451.97
2024-01-24T14:32:40.325Z,102438.13
2024-01-24T14:35:08.078Z,102431.28
2024-01-24T14:37:35.817Z,102453.13
2024-01-24T14:40:02.386Z,102452.38
2024-01-24T14:42:28.887Z,102472.47
2024-01-24T14:44:55.510Z,102467.31
2024-01-24T14:47:22.011Z,102471.84
2024-01-24T14:49:48.588Z,102470.03
2024-01-24T14:52:16.377Z,102480.63
2024-01-24T14:54:42.975Z,102489.41
2024-01-24T14:57:26.910Z,102485.03
2024-01-24T14:59:53.442Z,102484.34
2024-01-24T15:02:19.927Z,102500.06
2024-01-24T15:04:46.523Z,102509.75
2024-01-24T15:07:13.365Z,102503.81
2024-01-24T15:09:39.882Z,102508.28
2024-01-24T15:12:06.853Z,102507.50
2024-01-24T15:14:33.296Z,102499.72
2024-01-24T15:16:59.708Z,102505.13
2024-01-24T15:19:26.937Z,102508.63
2024-01-24T15:21:53.950Z,102508.78
2024-01-24T15:24:20.922Z,102518.56
2024-01-24T15:26:47.619Z,102517.78
2024-01-24T15:29:14.160Z,102523.94
2024-01-24T15:31:40.674Z,102524.03
2024-01-24T15:34:08.028Z,102532.88
2024-01-24T15:36:35.947Z,102535.50
2024-01-24T15:39:02.509Z,102541.78
2024-01-24T15:41:29.231Z,102550.63
2024-01-24T15:43:57.445Z,102550.75
2024-01-24T15:46:26.348Z,102567.38
2024-01-24T15:48:53.047Z,102569.31
2024-01-24T15:51:19.630Z,102571.97
2024-01-24T15:53:46.192Z,102568.59
2024-01-24T15:56:13.164Z,102568.78
2024-01-24T15:58:40.213Z,102581.94
2024-01-24T16:01:07.107Z,102568.16
2024-01-24T16:03:36.414Z,102564.00
2024-01-24T16:06:05.094Z,102571.06
2024-01-24T16:08:31.814Z,102579.84
2024-01-24T16:10:59.802Z,102572.09
2024-01-24T16:13:30.559Z,102585.25
2024-01-24T16:15:57.602Z,102578.34
2024-01-24T16:18:24.362Z,102587.81
2024-01-24T16:20:50.906Z,102581.81
2024-01-24T16:23:17.437Z,102581.03
2024-01-24T16:25:43.983Z,102599.38
2024-01-24T16:28:12.582Z,102600.31
2024-01-24T16:30:42.556Z,102603.84
2024-01-24T16:33:09.311Z,102605.53
2024-01-24T16:35:35.921Z,102619.59
2024-01-24T16:38:02.490Z,102623.00
2024-01-24T16:40:28.968Z,102625.59
2024-01-24T16:42:56.874Z,102641.44
2024-01-24T16:45:23.979Z,102627.56
2024-01-24T16:47:51.098Z,102624.00
2024-01-24T16:50:18.064Z,102618.88
2024-01-24T16:52:47.275Z,102625.09
2024-01-24T16:55:13.940Z,102628.63
2024-01-24T16:57:40.739Z,102626.03
2024-01-24T17:00:07.795Z,102634.72
2024-01-24T17:02:42.112Z,102631.31
2024-01-24T17:05:12.943Z,102644.41
2024-01-24T17:07:39.462Z,102652.34
2024-01-24T17:10:06.759Z,102643.66
2024-01-24T17:12:33.863Z,102645.44
2024-01-24T17:15:00.636Z,102648.03
2024-01-24T17:17:29.913Z,102653.28
2024-01-24T17:19:57.148Z,102661.13
2024-01-24T17:22:24.772Z,102665.34
2024-01-24T17:24:51.555Z,102667.94
2024-01-24T17:27:17.957Z,102670.66
2024-01-24T17:29:47.586Z,102671.75
2024-01-24T17:32:14.215Z,102665.69
2024-01-24T17:34:44.493Z,102672.75
2024-01-24T17:37:11.452Z,102677.91
2024-01-24T17:39:38.296Z,102677.91
2024-01-24T17:42:05.111Z,102688.38
2024-01-24T17:44:34.054Z,102691.06
2024-01-24T17:47:00.651Z,102688.44
2024-01-24T17:49:27.632Z,102695.44
2024-01-24T17:51:54.599Z,102694.59
2024-01-24T17:54:21.910Z,102704.28
2024-01-24T17:56:48.385Z,102711.25
2024-01-24T17:59:14.882Z,102713.91
2024-01-24T18:01:41.600Z,102717.53
2024-01-24T18:04:08.279Z,102712.38
2024-01-24T18:06:34.927Z,102707.25
2024-01-24T18:09:01.608Z,102713.38
2024-01-24T18:11:28.097Z,102712.59
2024-01-24T18:13:54.567Z,102709.16
2024-01-24T18:16:21.099Z,102697.91
2024-01-24T18:18:48.843Z,102695.41
2024-01-24T18:21:15.391Z,102701.56
2024-01-24T18:23:41.811Z,102698.16
2024-01-24T18:26:08.355Z,102700.03
2024-01-24T18:28:34.788Z,102708.84
2024-01-24T18:31:01.232Z,102701.97
2024-01-24T18:33:27.972Z,102691.59
2024-01-24T18:35:54.556Z,102687.31
2024-01-24T18:38:21.029Z,102694.38
2024-01-24T18:40:47.933Z,102690.16
2024-01-24T18:43:14.493Z,102685.94
2024-01-24T18:45:41.041Z,102691.19
2024-01-24T18:48:08.029Z,102691.25
2024-01-24T18:50:34.723Z,102691.41
2024-01-24T18:53:01.280Z,102695.81
2024-01-24T18:55:28.127Z,102703.72
2024-01-24T18:57:54.926Z,102705.53
2024-01-24T19:00:22.382Z,102714.28
2024-01-24T19:02:49.566Z,102710.00
2024-01-24T19:05:23.651Z,102706.56
2024-01-24T19:07:57.009Z,102715.31
2024-01-24T19:10:24.488Z,102715.31
2024-01-24T19:12:51.028Z,102705.91
2024-01-24T19:15:20.931Z,102712.94
2024-01-24T19:17:47.680Z,102713.91
2024-01-24T19:20:15.903Z,102727.88
2024-01-24T19:22:42.569Z,102736.75
2024-01-24T19:25:10.802Z,102729.75
2024-01-24T19:27:37.360Z,102728.13
2024-01-24T19:30:04.337Z,102722.91
2024-01-24T19:32:30.945Z,102729.81
2024-01-24T19:34:59.590Z,102727.28
2024-01-24T19:37:27.079Z,102728.19
2024-01-24T19:39:53.784Z,102722.13
2024-01-24T19:42:23.805Z,102735.25
2024-01-24T19:44:51.486Z,102732.66
2024-01-24T19:47:18.090Z,102737.94
2024-01-24T19:49:44.629Z,102730.19
2024-01-24T19:52:12.459Z,102731.09
2024-01-24T19:54:39.522Z,102737.31
2024-01-24T19:57:06.431Z,102738.16
2024-01-24T19:59:32.925Z,102739.03
2024-01-24T20:01:59.374Z,102734.78
2024-01-24T20:04:25.901Z,102741.75
2024-01-24T20:06:52.587Z,102747.81
2024-01-24T20:09:19.082Z,102753.97
2024-01-24T20:11:45.553Z,102764.47
2024-01-24T20:14:12.186Z,102752.19
2024-01-24T20:16:38.722Z,102753.97
2024-01-24T20:19:05.433Z,102746.13
2024-01-24T20:21:32.192Z,102743.44
2024-01-24T20:23:58.665Z,102764.28
2024-01-24T20:26:25.772Z,102766.94
2024-01-24T20:28:52.341Z,102762.66
2024-01-24T20:31:18.858Z,102767.81
2024-01-24T20:33:45.496Z,102757.34
2024-01-24T20:36:12.889Z,102761.59
2024-01-24T20:38:41.936Z,102769.50
2024-01-24T20:41:09.037Z,102774.56
2024-01-24T20:43:40.221Z,102774.63
2024-01-24T20:46:08.458Z,102767.81
2024-01-24T20:48:36.288Z,102772.03
2024-01-24T20:51:04.183Z,102758.03
2024-01-24T20:53:31.402Z,102756.34
2024-01-24T20:55:58.466Z,102761.59
2024-01-24T20:58:25.735Z,102760.66
2024-01-24T21:00:52.425Z,102752.81
2024-01-24T21:03:19.111Z,102748.50
2024-01-24T21:05:46.360Z,102754.59
2024-01-24T21:08:13.235Z,102758.03
2024-01-24T21:10:42.345Z,102752.75
2024-01-24T21:13:15.476Z,102756.16
2024-01-24T21:15:42.029Z,102762.22
2024-01-24T21:18:09.769Z,102768.31
2024-01-24T21:20:36.469Z,102777.00
2024-01-24T21:23:03.926Z,102764.84
2024-01-24T21:25:31.654Z,102769.13
2024-01-24T21:27:58.206Z,102768.13
2024-01-24T21:30:26.213Z,102772.34
2024-01-24T21:32:53.688Z,102756.78
2024-01-24T21:35:20.279Z,102763.69
2024-01-24T21:37:46.756Z,102764.63
2024-01-24T21:40:13.648Z,102756.78
2024-01-24T21:42:40.169Z,102758.44
2024-01-24T21:45:07.861Z,102770.53
2024-01-24T21:47:34.348Z,102767.78
2024-01-24T21:50:00.925Z,102782.38
2024-01-24T21:52:27.586Z,102779.75
2024-01-24T21:54:56.811Z,102778.06
2024-01-24T21:57:24.610Z,102778.00
2024-01-24T21:59:51.403Z,102769.25
2024-01-24T22:02:18.037Z,102772.78
2024-01-24T22:04:44.744Z,102782.31
2024-01-24T22:07:13.893Z,102783.84
2024-01-24T22:09:40.377Z,102781.13
2024-01-24T22:12:10.812Z,102786.34
2024-01-24T22:14:37.274Z,102799.53
2024-01-24T22:17:03.857Z,102802.97
2024-01-24T22:19:30.341Z,102810.94
2024-01-24T22:21:56.867Z,102804.81
2024-01-24T22:24:25.486Z,102811.72
2024-01-24T22:26:52.164Z,102809.97
2024-01-24T22:29:18.818Z,102803.81
2024-01-24T22:31:45.301Z,102806.44
2024-01-24T22:34:11.847Z,102809.13
2024-01-24T22:36:38.434Z,102808.34
2024-01-24T22:39:05.129Z,102811.88
2024-01-24T22:41:31.822Z,102816.22
2024-01-24T22:43:58.325Z,102811.00
2024-01-24T22:46:27.955Z,102820.63
2024-01-24T22:48:54.875Z,102820.59
2024-01-24T22:51:21.652Z,102820.63
2024-01-24T22:53:48.087Z,102822.34
2024-01-24T22:56:14.664Z,102834.69
2024-01-24T22:58:41.090Z,102828.59
2024-01-24T23:01:07.744Z,102826.91
2024-01-24T23:03:34.340Z,102823.38
2024-01-24T23:06:00.852Z,102836.44
2024-01-24T23:08:27.434Z,102838.25
2024-01-24T23:10:53.917Z,102838.41
2024-01-24T23:13:20.495Z,102845.56
2024-01-24T23:15:47.115Z,102854.22
2024-01-24T23:18:14.231Z,102856.91
2024-01-24T23:20:40.727Z,102861.50
2024-01-24T23:23:13.632Z,102874.69
2024-01-24T23:25:43.211Z,102868.91
2024-01-24T23:28:12.851Z,102875.22
2024-01-24T23:30:39.380Z,102860.63
2024-01-24T23:33:06.150Z,102866.78
2024-01-24T23:35:35.389Z,102865.19
2024-01-24T23:38:01.962Z,102866.13
2024-01-24T23:40:28.474Z,102873.34
2024-01-24T23:42:54.976Z,102865.66
2024-01-24T23:45:23.486Z,102852.81
2024-01-24T23:47:50.128Z,102868.59
2024-01-24T23:50:17.876Z,102879.22
2024-01-24T23:52:44.676Z,102872.41
2024-01-24T23:55:11.466Z,102867.31
2024-01-24T23:57:38.009Z,102870.03
